Kendall, Washington
Current Conditions -  °F | °C
As of 5:21 PM on Wednesday 22 Oct 2014 (Local Time) from CYXX Reporting Station
Moderate Rain Moderate Rain  
Wind Chill: 54°   Ceiling: 1400
Heat Index: 54°   Visibility: 8mi
Dew Point: 50°   Wind: 6mph
Humidity: 88%   Direction: 70°ENE
Pressure: 29.58"   Gusts: NA
Location:  48.8512°N, 121.903°W
Report Text: CYXX 230021Z 07005KT 8SM RA OVC014 12/10 A2958 RMK SC8 SLP018 DENSITY ALT 200FT
Loading
Personal Weather Stations






























Interactive Weather Map
Tropical Storm Tracking
New forecast layout! Learn more

10-Day Weather Forecast

Advertisements
Track Severe Weather on mobile